Time;durP1;ratioP1;P1;durP2;ratioP2;P2;SDS_P1;SDS_P2;PMS_P1;PMS_P2;Temp;Humidity;BMP_temperature;BMP_pressure;BME280_temperature;BME280_humidity;BME280_pressure;Samples;Min_cycle;Max_cycle;Signal;HPM_P1;HPM_P2
2022/09/17 00:01:57;;;;;;;;;;;;;;;22.15;49.29;100854.84;5136868;27;19923;-36
2022/09/17 00:04:22;;;;;;;;;;;;;;;22.13;49.35;100857.94;5117900;27;20002;-35
2022/09/17 00:06:48;;;;;;;;;;;;;;;22.13;49.49;100862.66;5118309;27;20384;-35
2022/09/17 00:09:14;;;;;;;;;;;;;;;22.14;49.40;100862.34;5123838;27;19938;-35
2022/09/17 00:11:40;;;;;;;;;;;;;;;22.14;49.32;100858.75;5133141;27;19927;-35
2022/09/17 00:14:08;;;;;;;;;;;;;;;22.15;49.51;100863.19;5116705;27;20065;-35
2022/09/17 00:16:35;;;;;;;;;;;;;;;22.15;49.36;100860.41;5115402;27;20014;-35
2022/09/17 00:19:01;;;;;;;;;;;;;;;22.16;49.45;100862.91;5138026;27;20353;-35
2022/09/17 00:21:27;;;;;;;;;;;;;;;22.17;49.30;100855.41;5135021;27;20018;-35
2022/09/17 00:23:55;;;;;;;;;;;;;;;22.15;49.34;100861.25;5133365;27;19935;-35
2022/09/17 00:26:20;;;;;;;;;;;;;;;22.15;49.46;100858.47;5118325;27;19946;-35
2022/09/17 00:28:50;;;;;;;;;;;;;;;22.16;49.62;100859.31;5119561;27;20357;-35
2022/09/17 00:31:16;;;;;;;;;;;;;;;22.15;49.50;100865.94;5136577;27;19962;-35
2022/09/17 00:33:41;;;;;;;;;;;;;;;22.15;49.43;100864.03;5134890;27;20021;-35
2022/09/17 00:36:07;;;;;;;;;;;;;;;22.14;49.48;100856.00;5133764;27;20026;-35
2022/09/17 00:38:33;;;;;;;;;;;;;;;22.12;49.49;100870.16;5135696;27;19934;-35
2022/09/17 00:40:59;;;;;;;;;;;;;;;22.14;49.48;100861.53;5117870;27;19923;-35
2022/09/17 00:43:32;;;;;;;;;;;;;;;22.14;49.53;100870.69;5139766;27;19935;-35
2022/09/17 00:45:58;;;;;;;;;;;;;;;22.15;49.58;100871.50;5111589;27;20382;-35
2022/09/17 00:48:24;;;;;;;;;;;;;;;22.13;49.45;100880.13;5115779;28;19934;-35
2022/09/17 00:50:49;;;;;;;;;;;;;;;22.14;49.44;100875.41;5133131;27;19931;-35
2022/09/17 00:53:16;;;;;;;;;;;;;;;22.14;49.50;100872.63;5136909;27;19968;-36
2022/09/17 00:55:43;;;;;;;;;;;;;;;22.15;49.50;100871.50;5118684;27;20029;-35
2022/09/17 00:58:09;;;;;;;;;;;;;;;22.14;49.43;100878.19;5139021;27;20023;-35
2022/09/17 01:00:34;;;;;;;;;;;;;;;22.14;49.59;100878.19;5135528;27;20022;-35
2022/09/17 01:03:00;;;;;;;;;;;;;;;22.14;49.60;100883.72;5133166;27;19932;-35
2022/09/17 01:05:30;;;;;;;;;;;;;;;22.13;49.54;100880.13;5118088;27;20009;-35
2022/09/17 01:08:00;;;;;;;;;;;;;;;22.13;49.56;100877.34;5116762;27;20014;-35
2022/09/17 01:10:45;;;;;;;;;;;;;;;22.13;49.57;100877.34;5117765;27;20010;-35
2022/09/17 01:13:17;;;;;;;;;;;;;;;22.11;49.38;100882.38;5117647;27;20035;-35
2022/09/17 01:16:01;;;;;;;;;;;;;;;22.12;49.60;100888.72;5135386;27;20022;-35
2022/09/17 01:18:32;;;;;;;;;;;;;;;22.11;49.68;100892.63;5134645;27;19949;-35
2022/09/17 01:21:18;;;;;;;;;;;;;;;22.12;49.79;100886.81;5134881;27;19945;-35
2022/09/17 01:23:50;;;;;;;;;;;;;;;22.11;49.57;100890.69;5122426;27;20022;-35
2022/09/17 01:26:23;;;;;;;;;;;;;;;22.12;49.53;100888.72;5114337;27;20346;-36
2022/09/17 01:29:09;;;;;;;;;;;;;;;22.13;49.50;100887.63;5120386;27;19930;-35
2022/09/17 01:31:37;;;;;;;;;;;;;;;22.13;49.66;100893.19;5122639;27;20029;-35
2022/09/17 01:34:23;;;;;;;;;;;;;;;22.12;49.53;100892.34;5135612;27;19924;-35
2022/09/17 01:36:52;;;;;;;;;;;;;;;22.13;49.51;100895.94;5116116;27;19958;-35
2022/09/17 01:39:23;;;;;;;;;;;;;;;22.12;49.62;100891.50;5131560;27;20321;-36
2022/09/17 01:41:51;;;;;;;;;;;;;;;22.11;49.63;100887.91;5115612;27;20088;-35
2022/09/17 01:44:36;;;;;;;;;;;;;;;22.14;49.66;100894.81;5138119;27;20068;-35
2022/09/17 01:47:04;;;;;;;;;;;;;;;22.11;49.64;100895.41;5116374;27;20334;-35
2022/09/17 01:49:30;;;;;;;;;;;;;;;22.11;49.50;100895.41;5115951;27;20018;-35
2022/09/17 01:51:56;;;;;;;;;;;;;;;22.11;49.52;100893.47;5115173;27;20030;-35
2022/09/17 01:54:22;;;;;;;;;;;;;;;22.11;49.58;100895.41;5139178;27;20334;-35
2022/09/17 01:56:51;;;;;;;;;;;;;;;22.12;49.50;100905.38;5112613;27;20037;-35
2022/09/17 01:59:18;;;;;;;;;;;;;;;22.11;49.54;100899.00;5118786;27;20057;-36
2022/09/17 02:01:45;;;;;;;;;;;;;;;22.12;49.46;100908.16;5133339;27;20018;-38
2022/09/17 02:04:15;;;;;;;;;;;;;;;22.09;49.56;100904.00;5132341;27;19931;-35
2022/09/17 02:06:42;;;;;;;;;;;;;;;22.09;49.68;100903.19;5131389;27;20014;-35
2022/09/17 02:09:12;;;;;;;;;;;;;;;22.09;49.69;100904.00;5116836;27;19971;-35
2022/09/17 02:11:41;;;;;;;;;;;;;;;22.10;49.71;100908.44;5136759;27;19923;-35
2022/09/17 02:14:07;;;;;;;;;;;;;;;22.10;49.55;100902.06;5136548;27;19942;-35
2022/09/17 02:16:33;;;;;;;;;;;;;;;22.09;49.63;100904.00;5128486;27;19978;-35
2022/09/17 02:19:01;;;;;;;;;;;;;;;22.09;49.63;100909.56;5136732;27;19923;-35
2022/09/17 02:21:33;;;;;;;;;;;;;;;22.10;49.56;100913.97;5133368;27;20357;-35
2022/09/17 02:26:39;;;;;;;;;;;;;;;22.09;49.56;100905.97;5164359;27;20022;-34
2022/09/17 02:29:07;;;;;;;;;;;;;;;22.09;49.52;100909.56;5159071;27;20006;-34
2022/09/17 02:31:33;;;;;;;;;;;;;;;22.10;49.70;100913.16;5145467;27;19966;-35
2022/09/17 02:34:00;;;;;;;;;;;;;;;22.10;49.53;100915.94;5165937;27;19958;-35
2022/09/17 02:36:26;;;;;;;;;;;;;;;22.09;49.70;100917.88;5144967;27;19923;-35
2022/09/17 02:38:53;;;;;;;;;;;;;;;22.10;49.70;100913.97;5143986;27;19976;-35
2022/09/17 02:41:21;;;;;;;;;;;;;;;22.09;49.56;100909.56;5142887;27;19927;-35
2022/09/17 02:43:57;;;;;;;;;;;;;;;22.07;49.68;100909.06;5144733;27;20014;-36
2022/09/17 02:46:28;;;;;;;;;;;;;;;22.08;49.54;100913.47;5161465;27;19970;-35
2022/09/17 02:49:13;;;;;;;;;;;;;;;22.08;49.66;100912.66;5165358;27;20030;-35
2022/09/17 02:51:43;;;;;;;;;;;;;;;22.09;49.65;100917.88;5146878;27;20027;-35
2022/09/17 02:54:19;;;;;;;;;;;;;;;22.10;49.54;100913.16;5142736;27;20034;-35
2022/09/17 02:56:50;;;;;;;;;;;;;;;22.10;49.56;100924.25;5162588;27;19954;-35
2022/09/17 02:59:40;;;;;;;;;;;;;;;22.09;49.62;100920.66;5162988;27;20375;-35
2022/09/17 03:02:09;;;;;;;;;;;;;;;22.09;49.70;100926.19;5146090;27;19974;-35
2022/09/17 03:04:34;;;;;;;;;;;;;;;22.08;49.71;100923.75;5164699;27;20010;-35
2022/09/17 03:07:04;;;;;;;;;;;;;;;22.10;49.72;100922.28;5161761;27;20018;-35
2022/09/17 03:09:30;;;;;;;;;;;;;;;22.08;49.55;100926.50;5156086;27;20459;-35
2022/09/17 03:11:56;;;;;;;;;;;;;;;22.08;49.52;100927.34;5159949;27;19970;-35
2022/09/17 03:14:21;;;;;;;;;;;;;;;22.08;49.67;100923.75;5163127;27;19923;-35
2022/09/17 03:16:47;;;;;;;;;;;;;;;22.06;49.54;100921.25;5158446;27;20010;-35
2022/09/17 03:19:12;;;;;;;;;;;;;;;22.09;49.53;100922.59;5163120;27;19932;-35
2022/09/17 03:21:38;;;;;;;;;;;;;;;22.09;49.54;100928.16;5162128;27;20350;-36
2022/09/17 03:24:04;;;;;;;;;;;;;;;22.09;49.64;100926.19;5164277;27;20013;-35
2022/09/17 03:26:29;;;;;;;;;;;;;;;22.08;49.66;100919.00;5158079;27;19930;-36
2022/09/17 03:28:55;;;;;;;;;;;;;;;22.07;49.66;100920.16;5161272;27;19938;-35
2022/09/17 03:31:20;;;;;;;;;;;;;;;22.08;49.56;100918.19;5159775;27;19939;-35
2022/09/17 03:33:46;;;;;;;;;;;;;;;22.07;49.51;100917.38;5164123;27;19923;-35
2022/09/17 03:36:12;;;;;;;;;;;;;;;22.08;49.58;100923.75;5161199;27;19970;-36
2022/09/17 03:38:37;;;;;;;;;;;;;;;22.07;49.51;100916.56;5150761;27;19930;-35
2022/09/17 03:41:05;;;;;;;;;;;;;;;22.08;49.54;100920.97;5146947;27;20310;-36
2022/09/17 03:43:31;;;;;;;;;;;;;;;22.05;49.52;100912.09;5147217;27;20010;-35
2022/09/17 03:45:57;;;;;;;;;;;;;;;22.07;49.63;100916.56;5148634;27;19931;-36
2022/09/17 03:48:22;;;;;;;;;;;;;;;22.07;49.50;100935.97;5152393;27;19966;-36
2022/09/17 03:50:48;;;;;;;;;;;;;;;22.08;49.70;100932.88;5150356;27;19999;-36
2022/09/17 03:53:14;;;;;;;;;;;;;;;22.08;49.63;100929.28;5134957;27;19938;-36
2022/09/17 03:55:40;;;;;;;;;;;;;;;22.06;49.72;100932.34;5133516;27;19923;-36
2022/09/17 03:58:05;;;;;;;;;;;;;;;22.05;49.63;100931.53;5150311;27;20273;-35
2022/09/17 04:00:31;;;;;;;;;;;;;;;22.05;49.70;100934.28;5152686;27;19975;-36
2022/09/17 04:02:57;;;;;;;;;;;;;;;22.06;49.67;100932.34;5150373;27;20026;-36
2022/09/17 04:05:22;;;;;;;;;;;;;;;22.05;49.68;100936.25;5153290;27;19982;-36
2022/09/17 04:07:48;;;;;;;;;;;;;;;22.07;49.64;100935.97;5133922;27;19927;-36
2022/09/17 04:10:14;;;;;;;;;;;;;;;22.06;49.60;100935.13;5137613;27;20017;-36
2022/09/17 04:12:39;;;;;;;;;;;;;;;22.07;49.75;100944.28;5149185;27;19929;-36
2022/09/17 04:15:05;;;;;;;;;;;;;;;22.05;49.58;100942.63;5134017;27;19927;-36
2022/09/17 04:17:31;;;;;;;;;;;;;;;22.06;49.60;100943.44;5149671;27;20420;-37
2022/09/17 04:19:57;;;;;;;;;;;;;;;22.06;49.57;100946.22;5151307;27;19983;-35
2022/09/17 04:22:23;;;;;;;;;;;;;;;22.05;49.71;100950.13;5151702;27;19923;-35
2022/09/17 04:24:48;;;;;;;;;;;;;;;22.06;49.57;100948.97;5151779;27;19923;-36
2022/09/17 04:27:14;;;;;;;;;;;;;;;22.04;49.40;100946.53;5149776;27;19931;-36
2022/09/17 04:29:39;;;;;;;;;;;;;;;22.04;49.67;100938.19;5150958;27;19968;-36
2022/09/17 04:32:05;;;;;;;;;;;;;;;22.04;49.68;100954.84;5150690;27;19975;-36
2022/09/17 04:34:31;;;;;;;;;;;;;;;22.04;49.69;100946.53;5134737;27;19927;-35
2022/09/17 04:36:57;;;;;;;;;;;;;;;22.04;49.68;100956.78;5133485;27;19979;-35
2022/09/17 04:39:23;;;;;;;;;;;;;;;22.05;49.57;100952.88;5151358;27;19923;-36
2022/09/17 04:41:48;;;;;;;;;;;;;;;22.05;49.71;100961.22;5150748;27;19927;-36
2022/09/17 04:44:14;;;;;;;;;;;;;;;22.05;49.65;100963.97;5151127;27;19923;-36
2022/09/17 04:46:40;;;;;;;;;;;;;;;22.03;49.64;100958.75;5147654;27;19923;-35
2022/09/17 04:49:06;;;;;;;;;;;;;;;22.03;49.58;100953.19;5131759;27;19923;-36
2022/09/17 04:51:32;;;;;;;;;;;;;;;22.05;49.63;100962.03;5151154;27;20065;-36
2022/09/17 04:53:57;;;;;;;;;;;;;;;22.03;49.66;100953.19;5152617;27;19927;-36
2022/09/17 04:56:23;;;;;;;;;;;;;;;22.04;49.73;100954.03;5150975;27;19923;-35
2022/09/17 04:58:49;;;;;;;;;;;;;;;22.03;49.69;100952.38;5151703;27;19927;-35
2022/09/17 05:01:17;;;;;;;;;;;;;;;22.03;49.62;100955.16;5149993;27;19923;-35
2022/09/17 05:03:43;;;;;;;;;;;;;;;22.04;49.63;100957.59;5150609;27;19931;-35
2022/09/17 05:06:09;;;;;;;;;;;;;;;22.04;49.52;100962.34;5133827;27;20013;-35
2022/09/17 05:08:35;;;;;;;;;;;;;;;22.02;49.69;100970.97;5135282;27;19923;-35
2022/09/17 05:11:00;;;;;;;;;;;;;;;22.03;49.67;100974.56;5151433;27;19968;-35
2022/09/17 05:13:26;;;;;;;;;;;;;;;22.03;49.75;100972.59;5132574;27;19975;-35
2022/09/17 05:15:53;;;;;;;;;;;;;;;22.02;49.59;100976.50;5146743;27;20484;-35
2022/09/17 05:18:19;;;;;;;;;;;;;;;22.03;49.65;100971.78;5135570;27;19934;-36
2022/09/17 05:20:44;;;;;;;;;;;;;;;22.02;49.64;100975.66;5149920;27;19922;-36
2022/09/17 05:23:10;;;;;;;;;;;;;;;22.02;49.64;100961.78;5151121;27;19930;-35
2022/09/17 05:25:35;;;;;;;;;;;;;;;22.03;49.68;100972.59;5149336;27;19931;-35
2022/09/17 05:28:01;;;;;;;;;;;;;;;22.03;49.68;100977.34;5150353;27;19934;-35
2022/09/17 05:30:27;;;;;;;;;;;;;;;22.02;49.74;100981.22;5150411;27;19975;-35
2022/09/17 05:33:00;;;;;;;;;;;;;;;22.01;49.66;100980.38;5149376;27;19970;-35
2022/09/17 05:35:26;;;;;;;;;;;;;;;22.02;49.74;100982.06;5133681;27;20010;-35
2022/09/17 05:37:55;;;;;;;;;;;;;;;22.04;49.55;100981.75;5150250;27;20284;-35
2022/09/17 05:40:20;;;;;;;;;;;;;;;22.04;49.66;100988.13;5151124;27;20029;-35
2022/09/17 05:42:46;;;;;;;;;;;;;;;22.03;49.67;100992.03;5150182;27;19988;-35
2022/09/17 05:45:12;;;;;;;;;;;;;;;22.02;49.66;100993.16;5149708;27;19931;-35
2022/09/17 05:47:37;;;;;;;;;;;;;;;22.02;49.68;100984.84;5148727;27;20316;-35
2022/09/17 05:50:03;;;;;;;;;;;;;;;22.04;49.48;100990.06;5149869;27;19923;-35
2022/09/17 05:52:29;;;;;;;;;;;;;;;22.02;49.58;100984.84;5151051;27;19931;-36
2022/09/17 05:54:55;;;;;;;;;;;;;;;22.02;49.74;100995.06;5150663;27;19924;-36
2022/09/17 05:57:20;;;;;;;;;;;;;;;22.01;49.66;101001.75;5133043;27;20285;-36
2022/09/17 05:59:46;;;;;;;;;;;;;;;22.00;49.60;101000.94;5148392;27;19924;-36
2022/09/17 06:02:12;;;;;;;;;;;;;;;22.00;49.72;101000.09;5149128;27;19930;-35
2022/09/17 06:04:38;;;;;;;;;;;;;;;22.01;49.52;100991.47;5149340;27;19970;-36
2022/09/17 06:07:06;;;;;;;;;;;;;;;22.01;49.74;101005.34;5148560;27;19932;-35
2022/09/17 06:09:33;;;;;;;;;;;;;;;22.01;49.72;101007.28;5149365;27;19927;-35
2022/09/17 06:11:59;;;;;;;;;;;;;;;22.01;49.67;101015.63;5149780;27;20018;-36
2022/09/17 06:14:24;;;;;;;;;;;;;;;22.00;49.68;101012.03;5150580;27;20029;-35
2022/09/17 06:16:50;;;;;;;;;;;;;;;21.99;49.61;101018.69;5146900;27;19922;-36
2022/09/17 06:19:15;;;;;;;;;;;;;;;22.00;49.73;101019.53;5149475;27;19924;-35
2022/09/17 06:21:41;;;;;;;;;;;;;;;22.01;49.49;101021.16;5148886;27;19927;-35
2022/09/17 06:24:08;;;;;;;;;;;;;;;22.00;49.70;101020.34;5149904;27;20007;-35
2022/09/17 06:26:34;;;;;;;;;;;;;;;22.01;49.64;101021.97;5148539;27;20182;-35
2022/09/17 06:28:59;;;;;;;;;;;;;;;22.01;49.62;101023.94;5149452;27;19930;-35
2022/09/17 06:31:25;;;;;;;;;;;;;;;22.01;49.66;101024.75;5148430;27;19946;-35
2022/09/17 06:33:51;;;;;;;;;;;;;;;22.00;49.53;101025.06;5148583;27;20293;-35
2022/09/17 06:36:17;;;;;;;;;;;;;;;22.00;49.65;101022.28;5147828;27;19979;-35
2022/09/17 06:38:42;;;;;;;;;;;;;;;22.00;49.67;101033.38;5149765;27;20006;-35
2022/09/17 06:41:08;;;;;;;;;;;;;;;21.99;49.70;101032.56;5133135;27;19976;-35
2022/09/17 06:43:34;;;;;;;;;;;;;;;21.99;49.69;101029.78;5149655;27;20034;-35
2022/09/17 06:46:00;;;;;;;;;;;;;;;22.00;49.68;101031.44;5145640;27;19931;-35
2022/09/17 06:48:26;;;;;;;;;;;;;;;22.00;49.51;101033.38;5148294;27;20309;-36
2022/09/17 06:50:53;;;;;;;;;;;;;;;22.00;49.67;101036.16;5130952;27;20392;-36
2022/09/17 06:53:19;;;;;;;;;;;;;;;22.00;49.73;101036.97;5132309;27;20351;-35
2022/09/17 06:55:44;;;;;;;;;;;;;;;21.99;49.54;101040.88;5149289;27;20016;-35
2022/09/17 06:58:10;;;;;;;;;;;;;;;21.99;49.64;101043.66;5129448;27;20366;-35
2022/09/17 07:00:36;;;;;;;;;;;;;;;21.99;49.73;101042.84;5148655;27;19930;-35
2022/09/17 07:03:01;;;;;;;;;;;;;;;21.99;49.72;101040.88;5147603;27;19931;-35
2022/09/17 07:05:28;;;;;;;;;;;;;;;21.98;49.65;101050.34;5148872;27;19923;-35
2022/09/17 07:07:53;;;;;;;;;;;;;;;21.99;49.53;101051.97;5131558;27;20014;-35
2022/09/17 07:10:19;;;;;;;;;;;;;;;21.97;49.66;101048.66;5150241;27;19969;-35
2022/09/17 07:12:45;;;;;;;;;;;;;;;21.98;49.54;101050.34;5135438;27;19935;-35
2022/09/17 07:15:15;;;;;;;;;;;;;;;21.99;49.67;101049.19;5152944;27;19931;-35
2022/09/17 07:17:42;;;;;;;;;;;;;;;21.99;49.53;101046.44;5149898;27;20007;-38
2022/09/17 07:20:08;;;;;;;;;;;;;;;21.98;49.81;101036.47;5136764;27;19995;-36
2022/09/17 07:22:33;;;;;;;;;;;;;;;21.99;49.66;101037.28;5151862;27;19927;-35
2022/09/17 07:24:59;;;;;;;;;;;;;;;21.99;49.60;101038.09;5133577;27;19950;-34
2022/09/17 07:27:26;;;;;;;;;;;;;;;21.98;49.65;101044.78;5151365;27;19966;-35
2022/09/17 07:29:52;;;;;;;;;;;;;;;22.00;49.64;101044.47;5137510;27;19976;-35
2022/09/17 07:32:17;;;;;;;;;;;;;;;21.97;49.62;101034.78;5150764;27;19927;-35
2022/09/17 07:34:43;;;;;;;;;;;;;;;21.98;49.61;101036.47;5151776;27;20361;-35
2022/09/17 07:37:08;;;;;;;;;;;;;;;21.98;49.72;101035.66;5151743;27;19927;-35
2022/09/17 07:39:34;;;;;;;;;;;;;;;21.98;49.54;101035.66;5150936;27;19941;-36
2022/09/17 07:42:00;;;;;;;;;;;;;;;21.98;49.52;101046.72;5152342;27;19929;-35
2022/09/17 07:44:26;;;;;;;;;;;;;;;21.99;49.63;101037.28;5152199;27;19973;-36
2022/09/17 07:46:52;;;;;;;;;;;;;;;21.98;49.64;101036.47;5150038;27;20013;-35
2022/09/17 07:49:18;;;;;;;;;;;;;;;21.98;49.53;101033.69;5150671;27;19983;-36
2022/09/17 07:51:44;;;;;;;;;;;;;;;21.98;49.63;101047.56;5150533;27;19992;-36
2022/09/17 07:54:10;;;;;;;;;;;;;;;21.97;49.70;101040.34;5152764;27;20023;-36
2022/09/17 07:56:35;;;;;;;;;;;;;;;21.99;49.63;101048.38;5151105;27;20406;-36
2022/09/17 07:59:01;;;;;;;;;;;;;;;22.00;49.67;101050.03;5151187;27;19962;-36
2022/09/17 08:01:27;;;;;;;;;;;;;;;22.00;49.54;101048.06;5134868;27;19923;-36
2022/09/17 08:03:53;;;;;;;;;;;;;;;21.98;49.66;101050.34;5152106;27;19931;-36
2022/09/17 08:06:19;;;;;;;;;;;;;;;21.99;49.63;101051.97;5135556;27;20369;-36
2022/09/17 08:08:45;;;;;;;;;;;;;;;21.98;49.64;101053.09;5138545;27;19972;-37
2022/09/17 08:11:13;;;;;;;;;;;;;;;21.97;49.67;101053.38;5133636;27;19929;-36
2022/09/17 08:13:38;;;;;;;;;;;;;;;21.97;49.64;101048.66;5151714;27;19976;-35
2022/09/17 08:16:05;;;;;;;;;;;;;;;21.98;49.66;101042.00;5149930;27;19983;-38
2022/09/17 08:18:31;;;;;;;;;;;;;;;21.97;49.61;101045.88;5135037;27;19931;-36
2022/09/17 08:20:58;;;;;;;;;;;;;;;21.98;49.56;101041.19;5150501;27;19930;-36
2022/09/17 08:23:24;;;;;;;;;;;;;;;21.97;49.54;101048.66;5151142;27;20293;-36
2022/09/17 08:25:51;;;;;;;;;;;;;;;21.97;49.76;101048.66;5134886;27;20029;-36
2022/09/17 08:28:17;;;;;;;;;;;;;;;21.97;49.59;101048.66;5133374;27;19970;-36
2022/09/17 08:30:43;;;;;;;;;;;;;;;21.96;49.70;101038.69;5151331;27;19930;-36
2022/09/17 08:33:08;;;;;;;;;;;;;;;21.96;49.51;101047.00;5148962;27;19930;-36
2022/09/17 08:35:34;;;;;;;;;;;;;;;21.97;49.53;101051.44;5131797;27;20356;-36
2022/09/17 08:38:00;;;;;;;;;;;;;;;21.98;49.47;101049.50;5150451;27;20381;-36
2022/09/17 08:40:26;;;;;;;;;;;;;;;21.97;49.67;101056.16;5150535;27;19938;-36
2022/09/17 08:42:56;;;;;;;;;;;;;;;21.97;49.70;101056.97;5147358;27;20347;-36
2022/09/17 08:45:21;;;;;;;;;;;;;;;21.95;49.64;101056.47;5149974;27;19973;-36
2022/09/17 08:47:47;;;;;;;;;;;;;;;21.97;49.62;101059.75;5130553;27;19931;-36
2022/09/17 08:50:15;;;;;;;;;;;;;;;21.97;49.54;101056.97;5151345;27;19930;-36
2022/09/17 08:53:01;;;;;;;;;;;;;;;21.96;49.70;101049.78;5136374;27;19970;-36
2022/09/17 08:55:33;;;;;;;;;;;;;;;21.97;49.41;101050.59;5136188;27;19931;-37
2022/09/17 08:58:05;;;;;;;;;;;;;;;21.98;49.57;101046.72;5151346;27;19931;-36
2022/09/17 09:00:38;;;;;;;;;;;;;;;21.97;49.66;101056.97;5150704;27;19980;-35
2022/09/17 09:03:17;;;;;;;;;;;;;;;21.97;49.57;101051.44;5151467;27;19978;-35
2022/09/17 09:05:43;;;;;;;;;;;;;;;21.97;49.49;101054.19;5149571;27;19965;-36
2022/09/17 09:08:15;;;;;;;;;;;;;;;21.98;49.63;101060.59;5150838;27;20026;-37
2022/09/17 09:10:47;;;;;;;;;;;;;;;21.98;49.65;101052.28;5150112;27;19962;-37
2022/09/17 09:13:14;;;;;;;;;;;;;;;21.97;49.53;101053.38;5150202;27;20010;-35
2022/09/17 09:15:41;;;;;;;;;;;;;;;21.97;49.62;101064.47;5147340;27;19975;-37
2022/09/17 09:18:11;;;;;;;;;;;;;;;21.96;49.62;101055.34;5132791;27;19973;-36
2022/09/17 09:20:40;;;;;;;;;;;;;;;21.95;49.66;101053.69;5150587;27;20025;-36
2022/09/17 09:23:09;;;;;;;;;;;;;;;21.96;49.62;101060.06;5151199;27;19966;-36
2022/09/17 09:25:38;;;;;;;;;;;;;;;21.96;49.64;101057.28;5149041;27;20018;-36
2022/09/17 09:28:23;;;;;;;;;;;;;;;21.94;49.63;101056.78;5149369;27;20051;-35
2022/09/17 09:30:54;;;;;;;;;;;;;;;21.96;49.59;101052.56;5135627;27;20001;-35
2022/09/17 09:33:23;;;;;;;;;;;;;;;21.96;49.54;101049.78;5150713;27;20026;-36
2022/09/17 09:35:49;;;;;;;;;;;;;;;21.95;49.71;101055.63;5134503;27;20042;-36
2022/09/17 09:38:17;;;;;;;;;;;;;;;21.95;49.55;101050.09;5150586;27;20281;-36
2022/09/17 09:40:45;;;;;;;;;;;;;;;21.95;49.60;101053.69;5134936;27;20022;-36
2022/09/17 09:43:14;;;;;;;;;;;;;;;21.96;49.50;101051.72;5132680;27;20025;-36
2022/09/17 09:46:00;;;;;;;;;;;;;;;21.97;49.63;101050.59;5133136;27;19938;-36
2022/09/17 09:48:29;;;;;;;;;;;;;;;21.95;49.64;101052.88;5135370;27;20378;-35
2022/09/17 09:51:02;;;;;;;;;;;;;;;21.95;49.66;101061.19;5149764;27;20005;-36
2022/09/17 09:53:43;;;;;;;;;;;;;;;21.96;49.66;101068.38;5150131;27;19976;-35
2022/09/17 09:56:19;;;;;;;;;;;;;;;21.95;49.58;101062.00;5132329;27;20387;-36
2022/09/17 09:58:44;;;;;;;;;;;;;;;21.95;49.66;101056.47;5147737;27;19961;-35
2022/09/17 10:01:12;;;;;;;;;;;;;;;21.94;49.64;101052.03;5131122;27;19931;-35
2022/09/17 10:03:38;;;;;;;;;;;;;;;21.94;49.64;101052.03;5148690;27;20389;-35
2022/09/17 10:06:05;;;;;;;;;;;;;;;21.96;49.63;101051.72;5148530;27;20030;-36
2022/09/17 10:08:32;;;;;;;;;;;;;;;21.95;49.52;101039.81;5129436;27;20011;-35
2022/09/17 10:10:59;;;;;;;;;;;;;;;21.96;49.66;101046.19;5151868;27;19969;-35
2022/09/17 10:13:26;;;;;;;;;;;;;;;21.96;49.64;101043.41;5131257;27;20017;-36
2022/09/17 10:15:51;;;;;;;;;;;;;;;21.95;49.57;101036.22;5146970;27;20034;-35
2022/09/17 10:18:19;;;;;;;;;;;;;;;21.94;49.71;101034.59;5150320;27;19923;-36
2022/09/17 10:20:49;;;;;;;;;;;;;;;21.96;49.54;101032.31;5130395;27;20398;-35
2022/09/17 10:23:15;;;;;;;;;;;;;;;21.96;49.66;101021.22;5131314;27;20025;-36
2022/09/17 10:25:42;;;;;;;;;;;;;;;21.95;49.65;101034.28;5129673;27;20409;-36
2022/09/17 10:28:20;;;;;;;;;;;;;;;21.92;49.58;101034.88;5148160;27;20365;-38
2022/09/17 10:31:09;;;;;;;;;;;;;;;21.92;49.62;101032.09;5130996;27;20827;-38
2022/09/17 10:33:35;;;;;;;;;;;;;;;21.94;49.61;101026.25;5133811;27;20392;-39
2022/09/17 10:36:05;;;;;;;;;;;;;;;21.95;49.54;101027.91;5146625;27;20013;-38
2022/09/17 10:38:32;;;;;;;;;;;;;;;21.94;49.53;101026.25;5132337;27;20416;-39
2022/09/17 10:41:14;;;;;;;;;;;;;;;21.95;49.55;101014.03;5131208;27;20021;-39
2022/09/17 10:43:40;;;;;;;;;;;;;;;21.94;49.71;101029.84;5148881;27;19988;-38
2022/09/17 10:46:07;;;;;;;;;;;;;;;21.94;49.57;101018.78;5146336;27;20030;-38
2022/09/17 10:48:35;;;;;;;;;;;;;;;21.96;49.60;101012.91;5137022;27;20010;-38
2022/09/17 10:51:02;;;;;;;;;;;;;;;21.92;49.63;101009.09;5133083;27;20006;-39
2022/09/17 10:53:27;;;;;;;;;;;;;;;21.94;49.26;101013.22;5152012;27;20023;-38
2022/09/17 10:55:57;;;;;;;;;;;;;;;21.96;49.51;101008.19;5135166;27;19931;-38
2022/09/17 10:58:23;;;;;;;;;;;;;;;21.95;49.64;101011.28;5153604;27;19978;-38
2022/09/17 11:00:54;;;;;;;;;;;;;;;21.94;49.50;101009.63;5152442;27;20094;-38
2022/09/17 11:03:39;;;;;;;;;;;;;;;21.95;49.71;101008.50;5151036;27;20391;-39
2022/09/17 11:06:25;;;;;;;;;;;;;;;21.95;49.60;101002.94;5137848;27;20413;-38
2022/09/17 11:11:50;;;;;;;;;;;;;;;21.94;49.51;101012.41;5173164;27;19934;-36
2022/09/17 11:14:23;;;;;;;;;;;;;;;21.97;49.75;100997.91;5151675;27;20013;-35
2022/09/17 11:17:08;;;;;;;;;;;;;;;21.95;49.71;101014.03;5164799;27;20002;-35
2022/09/17 11:19:39;;;;;;;;;;;;;;;21.94;49.67;101029.84;5151066;27;20010;-36
2022/09/17 11:22:10;;;;;;;;;;;;;;;21.95;49.37;101034.28;5165712;27;20009;-35
2022/09/17 11:24:44;;;;;;;;;;;;;;;21.96;49.57;101049.78;5165703;27;20013;-36
2022/09/17 11:27:30;;;;;;;;;;;;;;;21.94;49.53;101046.50;5166635;27;20002;-35
2022/09/17 11:30:15;;;;;;;;;;;;;;;21.94;49.53;101052.03;5150699;27;20014;-35
2022/09/17 11:32:59;;;;;;;;;;;;;;;21.94;49.72;101045.69;5148271;27;20432;-35
2022/09/17 11:35:26;;;;;;;;;;;;;;;21.92;49.68;101050.69;5166141;27;19977;-36
2022/09/17 11:38:01;;;;;;;;;;;;;;;21.92;49.67;101047.91;5165113;27;20335;-36
2022/09/17 11:40:46;;;;;;;;;;;;;;;21.91;49.68;101036.00;5166212;27;20003;-36
2022/09/17 11:43:15;;;;;;;;;;;;;;;21.91;49.54;101041.53;5147298;27;20010;-35
2022/09/17 11:45:45;;;;;;;;;;;;;;;21.92;49.53;101031.25;5149802;27;19966;-36
2022/09/17 11:48:12;;;;;;;;;;;;;;;21.93;49.64;101042.06;5153998;27;19978;-35
2022/09/17 11:50:41;;;;;;;;;;;;;;;21.90;49.75;101037.13;5155563;27;20006;-36
2022/09/17 11:53:27;;;;;;;;;;;;;;;21.93;49.68;101035.69;5136716;27;19986;-35
2022/09/17 11:55:54;;;;;;;;;;;;;;;21.91;49.59;101033.22;5137627;27;19967;-36
2022/09/17 11:58:25;;;;;;;;;;;;;;;21.91;49.69;101029.63;5137247;27;20487;-36
2022/09/17 12:00:52;;;;;;;;;;;;;;;21.93;49.58;101028.19;5155010;27;20047;-36
2022/09/17 12:03:23;;;;;;;;;;;;;;;21.93;49.53;101027.38;5158344;27;20013;-35
2022/09/17 12:05:51;;;;;;;;;;;;;;;21.90;49.67;101026.03;5154223;27;20373;-36
2022/09/17 12:08:33;;;;;;;;;;;;;;;21.91;49.67;101019.34;5135768;27;20022;-35
2022/09/17 12:11:08;;;;;;;;;;;;;;;21.91;49.69;101013.00;5159215;27;20062;-35
2022/09/17 12:13:35;;;;;;;;;;;;;;;21.91;49.61;101005.50;5156538;27;20490;-36
2022/09/17 12:16:05;;;;;;;;;;;;;;;21.91;49.72;101008.25;5134246;27;20014;-36
2022/09/17 12:18:51;;;;;;;;;;;;;;;21.92;49.54;101006.31;5137893;27;20277;-36
2022/09/17 12:21:26;;;;;;;;;;;;;;;21.91;49.61;101007.44;5133915;27;20050;-36
2022/09/17 12:23:54;;;;;;;;;;;;;;;21.91;49.68;101005.50;5142379;27;19962;-35
2022/09/17 12:26:31;;;;;;;;;;;;;;;21.92;49.57;101001.59;5120585;27;20010;-36
2022/09/17 12:29:07;;;;;;;;;;;;;;;21.93;49.69;101016.28;5141083;27;20422;-36
2022/09/17 12:31:36;;;;;;;;;;;;;;;21.91;49.61;101052.63;5143469;27;19978;-36
2022/09/17 12:34:12;;;;;;;;;;;;;;;21.94;49.75;101065.91;5141206;27;20014;-35
2022/09/17 12:36:41;;;;;;;;;;;;;;;21.92;49.53;101056.22;5142675;27;19987;-36
2022/09/17 12:39:11;;;;;;;;;;;;;;;21.92;49.60;101053.44;5120869;27;19985;-36
2022/09/17 12:41:57;;;;;;;;;;;;;;;21.91;49.51;101044.31;5137140;27;20061;-36
2022/09/17 12:44:42;;;;;;;;;;;;;;;21.90;49.66;101034.34;5124626;27;20002;-36
2022/09/17 12:47:21;;;;;;;;;;;;;;;21.91;49.72;101035.16;5119962;27;20442;-36
2022/09/17 12:49:53;;;;;;;;;;;;;;;21.91;49.71;101029.63;5138460;27;20030;-36